createdAt,value
2023-05-24T00:02:21.033Z,56.20
2023-05-24T00:04:49.544Z,56.30
2023-05-24T00:07:16.712Z,56.50
2023-05-24T00:09:43.707Z,56.50
2023-05-24T00:12:10.929Z,56.50
2023-05-24T00:14:37.842Z,56.50
2023-05-24T00:17:05.070Z,56.80
2023-05-24T00:19:32.046Z,56.90
2023-05-24T00:21:59.440Z,57.00
2023-05-24T00:24:26.339Z,56.90
2023-05-24T00:26:53.361Z,57.00
2023-05-24T00:29:20.267Z,57.00
2023-05-24T00:31:47.322Z,57.00
2023-05-24T00:34:14.270Z,57.00
2023-05-24T00:36:41.276Z,56.90
2023-05-24T00:39:09.102Z,57.00
2023-05-24T00:41:36.266Z,56.90
2023-05-24T00:44:03.372Z,56.90
2023-05-24T00:46:33.967Z,56.80
2023-05-24T00:49:01.914Z,56.90
2023-05-24T00:51:32.141Z,56.80
2023-05-24T00:53:59.763Z,56.80
2023-05-24T00:56:27.873Z,56.90
2023-05-24T00:58:56.121Z,57.00
2023-05-24T01:01:26.086Z,57.10
2023-05-24T01:03:54.289Z,56.90
2023-05-24T01:06:23.550Z,56.90
2023-05-24T01:08:59.666Z,56.90
2023-05-24T01:11:43.138Z,57.00
2023-05-24T01:14:15.146Z,57.30
2023-05-24T01:16:53.877Z,57.20
2023-05-24T01:20:02.624Z,57.30
2023-05-24T01:22:42.228Z,57.40
2023-05-24T01:25:30.674Z,57.50
2023-05-24T01:27:59.780Z,57.60
2023-05-24T01:30:30.705Z,57.50
2023-05-24T01:32:58.019Z,57.60
2023-05-24T01:35:25.027Z,57.60
2023-05-24T01:37:51.915Z,57.50
2023-05-24T01:40:18.969Z,57.30
2023-05-24T01:42:58.946Z,57.40
2023-05-24T01:45:49.969Z,57.50
2023-05-24T01:48:24.777Z,57.60
2023-05-24T01:51:01.421Z,57.40
2023-05-24T01:53:34.510Z,57.60
2023-05-24T01:56:05.026Z,57.60
2023-05-24T01:58:33.494Z,57.80
2023-05-24T02:01:02.072Z,57.80
2023-05-24T02:03:29.359Z,57.90
2023-05-24T02:05:56.230Z,58.00
2023-05-24T02:08:23.415Z,58.00
2023-05-24T02:10:51.938Z,58.00
2023-05-24T02:13:19.962Z,57.80
2023-05-24T02:15:47.794Z,57.90
2023-05-24T02:18:15.014Z,57.90
2023-05-24T02:20:42.562Z,58.10
2023-05-24T02:23:09.629Z,57.90
2023-05-24T02:25:37.485Z,58.10
2023-05-24T02:28:04.829Z,58.20
2023-05-24T02:30:31.756Z,59.40
2023-05-24T02:32:58.893Z,58.60
2023-05-24T02:35:25.948Z,58.90
2023-05-24T02:37:52.978Z,58.90
2023-05-24T02:40:19.980Z,59.30
2023-05-24T02:42:47.008Z,59.70
2023-05-24T02:45:13.843Z,60.00
2023-05-24T02:47:40.909Z,60.00
2023-05-24T02:50:08.237Z,60.10
2023-05-24T02:52:35.501Z,60.10
2023-05-24T02:55:02.453Z,60.20
2023-05-24T02:57:34.314Z,60.20
2023-05-24T03:00:01.403Z,60.30
2023-05-24T03:02:29.886Z,60.20
2023-05-24T03:04:57.219Z,60.10
2023-05-24T03:07:24.123Z,60.10
2023-05-24T03:09:51.135Z,60.10
2023-05-24T03:12:18.154Z,60.10
2023-05-24T03:14:45.108Z,60.10
2023-05-24T03:17:12.071Z,59.70
2023-05-24T03:19:39.202Z,59.70
2023-05-24T03:22:06.275Z,59.60
2023-05-24T03:24:33.647Z,59.70
2023-05-24T03:27:01.101Z,59.90
2023-05-24T03:29:28.035Z,59.70
2023-05-24T03:31:55.464Z,59.80
2023-05-24T03:34:22.682Z,60.00
2023-05-24T03:36:50.075Z,60.10
2023-05-24T03:39:18.477Z,60.00
2023-05-24T03:42:14.611Z,59.70
2023-05-24T03:44:41.826Z,60.00
2023-05-24T03:47:08.827Z,60.30
2023-05-24T03:49:35.860Z,60.20
2023-05-24T03:52:03.368Z,60.30
2023-05-24T03:54:30.541Z,60.50
2023-05-24T03:56:57.470Z,60.80
2023-05-24T03:59:24.631Z,60.90
2023-05-24T04:01:51.623Z,61.00
2023-05-24T04:04:19.212Z,60.90
2023-05-24T04:06:46.342Z,61.10
2023-05-24T04:09:13.507Z,61.20
2023-05-24T04:11:40.380Z,61.20
2023-05-24T04:14:07.744Z,61.20
2023-05-24T04:16:34.746Z,61.20
2023-05-24T04:19:05.645Z,61.10
2023-05-24T04:21:33.380Z,61.30
2023-05-24T04:24:01.630Z,61.50
2023-05-24T04:26:29.836Z,61.70
2023-05-24T04:28:57.690Z,61.60
2023-05-24T04:31:26.277Z,61.60
2023-05-24T04:33:53.354Z,61.70
2023-05-24T04:36:22.964Z,61.80
2023-05-24T04:38:50.432Z,62.00
2023-05-24T04:41:17.343Z,61.90
2023-05-24T04:43:44.308Z,61.70
2023-05-24T04:46:11.274Z,61.70
2023-05-24T04:48:38.131Z,61.80
2023-05-24T04:51:05.101Z,61.80
2023-05-24T04:53:32.905Z,62.00
2023-05-24T04:55:59.854Z,62.20
2023-05-24T04:58:26.932Z,62.50
2023-05-24T05:00:53.859Z,62.80
2023-05-24T05:03:20.857Z,64.00
2023-05-24T05:05:47.849Z,63.30
2023-05-24T05:08:15.419Z,63.60
2023-05-24T05:10:42.688Z,63.60
2023-05-24T05:13:09.812Z,63.80
2023-05-24T05:15:36.823Z,63.90
2023-05-24T05:18:03.930Z,64.20
2023-05-24T05:20:31.018Z,63.80
2023-05-24T05:22:58.003Z,63.90
2023-05-24T05:25:25.136Z,63.90
2023-05-24T05:27:51.941Z,64.20
2023-05-24T05:30:18.809Z,64.20
2023-05-24T05:32:46.013Z,64.40
2023-05-24T05:35:13.061Z,64.40
2023-05-24T05:37:39.965Z,64.10
2023-05-24T05:40:07.429Z,64.20
2023-05-24T05:42:34.547Z,64.20
2023-05-24T05:45:01.400Z,64.00
2023-05-24T05:47:28.371Z,63.90
2023-05-24T05:49:55.521Z,63.50
2023-05-24T05:52:22.376Z,63.40
2023-05-24T05:54:49.364Z,63.20
2023-05-24T05:57:16.404Z,63.30
2023-05-24T05:59:43.302Z,63.30
2023-05-24T06:02:10.335Z,63.80
2023-05-24T06:04:37.260Z,63.40
2023-05-24T06:07:04.458Z,63.30
2023-05-24T06:09:31.424Z,62.60
2023-05-24T06:11:58.279Z,62.30
2023-05-24T06:14:25.399Z,62.60
2023-05-24T06:16:54.496Z,62.80
2023-05-24T06:19:21.815Z,61.10
2023-05-24T06:21:50.708Z,61.10
2023-05-24T06:24:21.588Z,60.90
2023-05-24T06:26:52.691Z,61.60
2023-05-24T06:29:21.049Z,61.10
2023-05-24T06:31:48.941Z,60.70
2023-05-24T06:34:21.130Z,60.00
2023-05-24T06:36:51.013Z,58.80
2023-05-24T06:39:18.157Z,58.10
2023-05-24T06:41:46.217Z,57.70
2023-05-24T06:44:13.178Z,58.70
2023-05-24T06:46:40.983Z,57.80
2023-05-24T06:49:08.618Z,57.70
2023-05-24T06:51:36.802Z,57.30
2023-05-24T06:54:03.798Z,58.10
2023-05-24T06:56:30.861Z,58.30
2023-05-24T06:58:58.491Z,58.00
2023-05-24T07:01:25.392Z,57.40
2023-05-24T07:03:52.700Z,57.50
2023-05-24T07:06:19.657Z,57.90
2023-05-24T07:08:46.612Z,57.10
2023-05-24T07:11:13.732Z,56.30
2023-05-24T07:13:40.582Z,55.10
2023-05-24T07:16:07.565Z,53.20
2023-05-24T07:18:34.725Z,52.10
2023-05-24T07:21:01.676Z,50.90
2023-05-24T07:23:28.585Z,51.40
2023-05-24T07:25:55.426Z,49.90
2023-05-24T07:28:22.531Z,49.30
2023-05-24T07:30:49.692Z,48.90
2023-05-24T07:33:16.876Z,47.60
2023-05-24T07:35:45.822Z,46.20
2023-05-24T07:38:12.938Z,44.70
2023-05-24T07:40:39.991Z,45.00
2023-05-24T07:43:06.991Z,45.40
2023-05-24T07:45:34.361Z,44.80
2023-05-24T07:48:01.916Z,44.50
2023-05-24T07:50:29.419Z,44.20
2023-05-24T07:52:57.595Z,43.50
2023-05-24T07:55:24.522Z,43.50
2023-05-24T07:57:51.462Z,42.30
2023-05-24T08:00:20.196Z,41.90
2023-05-24T08:02:47.177Z,43.30
2023-05-24T08:05:15.117Z,42.10
2023-05-24T08:07:42.258Z,42.90
2023-05-24T08:10:13.726Z,43.20
2023-05-24T08:12:41.870Z,41.90
2023-05-24T08:15:09.433Z,43.10
2023-05-24T08:17:36.728Z,44.00
2023-05-24T08:20:08.573Z,44.00
2023-05-24T08:22:37.378Z,43.20
2023-05-24T08:25:04.814Z,44.40
2023-05-24T08:27:31.881Z,42.70
2023-05-24T08:29:59.215Z,41.00
2023-05-24T08:32:26.856Z,41.10
2023-05-24T08:35:00.477Z,38.50
2023-05-24T08:37:34.320Z,38.70
2023-05-24T08:40:01.594Z,39.40
2023-05-24T08:42:30.761Z,38.60
2023-05-24T08:45:26.177Z,38.10
2023-05-24T08:47:54.283Z,37.50
2023-05-24T08:50:22.085Z,38.10
2023-05-24T08:52:50.002Z,36.80
2023-05-24T08:55:17.560Z,35.60
2023-05-24T08:57:46.115Z,36.10
2023-05-24T09:00:13.882Z,36.20
2023-05-24T09:02:42.455Z,37.80
2023-05-24T09:05:17.500Z,35.50
2023-05-24T09:07:46.171Z,36.10
2023-05-24T09:10:13.357Z,35.00
2023-05-24T09:12:48.870Z,34.60
2023-05-24T09:15:15.957Z,34.30
2023-05-24T09:17:43.317Z,35.30
2023-05-24T09:20:11.492Z,34.30
2023-05-24T09:22:42.091Z,35.70
2023-05-24T09:25:12.664Z,35.30
2023-05-24T09:27:39.861Z,34.80
2023-05-24T09:30:12.767Z,34.60
2023-05-24T09:32:40.090Z,35.70
2023-05-24T09:35:10.453Z,35.60
2023-05-24T09:37:38.997Z,36.40
2023-05-24T09:40:10.977Z,35.90
2023-05-24T09:42:38.455Z,36.00
2023-05-24T09:45:09.467Z,35.20
2023-05-24T09:47:38.872Z,35.60
2023-05-24T09:50:12.896Z,34.80
2023-05-24T09:52:41.090Z,35.40
2023-05-24T09:55:21.469Z,34.50
2023-05-24T09:57:53.568Z,34.20
2023-05-24T10:00:24.958Z,33.80
2023-05-24T10:03:02.688Z,34.70
2023-05-24T10:05:30.289Z,34.40
2023-05-24T10:08:01.476Z,34.90
2023-05-24T10:10:30.112Z,37.50
2023-05-24T10:12:57.847Z,36.20
2023-05-24T10:15:25.589Z,36.30
2023-05-24T10:17:53.925Z,34.40
2023-05-24T10:20:21.338Z,34.40
2023-05-24T10:22:52.937Z,35.40
2023-05-24T10:25:27.338Z,35.80
2023-05-24T10:28:15.057Z,36.00
2023-05-24T10:30:58.317Z,36.50
2023-05-24T10:33:26.254Z,35.80
2023-05-24T10:35:54.474Z,36.90
2023-05-24T10:38:24.021Z,36.30
2023-05-24T10:40:51.353Z,37.20
2023-05-24T10:43:18.347Z,37.70
2023-05-24T10:45:50.002Z,37.90
2023-05-24T10:48:17.721Z,36.40
2023-05-24T10:50:45.204Z,35.70
2023-05-24T10:53:20.189Z,35.50
2023-05-24T10:55:54.426Z,35.80
2023-05-24T10:58:27.368Z,35.90
2023-05-24T11:00:54.442Z,36.10
2023-05-24T11:03:24.741Z,35.30
2023-05-24T11:05:54.742Z,35.10
2023-05-24T11:08:35.945Z,34.80
2023-05-24T11:11:22.183Z,35.10
2023-05-24T11:13:57.840Z,35.30
2023-05-24T11:16:37.527Z,36.70
2023-05-24T11:19:20.126Z,36.90
2023-05-24T11:21:53.249Z,36.20
2023-05-24T11:24:22.129Z,36.60
2023-05-24T11:26:50.637Z,37.20
2023-05-24T11:29:19.117Z,36.80
2023-05-24T11:31:54.215Z,37.30
2023-05-24T11:34:21.854Z,38.00
2023-05-24T11:36:49.381Z,39.00
2023-05-24T11:39:16.701Z,39.20
2023-05-24T11:41:44.331Z,39.50
2023-05-24T11:44:12.229Z,38.90
2023-05-24T11:46:40.496Z,39.80
2023-05-24T11:49:14.635Z,38.90
2023-05-24T11:51:42.419Z,40.20
2023-05-24T11:54:09.730Z,40.00
2023-05-24T11:56:37.029Z,41.20
2023-05-24T11:59:38.189Z,41.90
2023-05-24T12:02:06.722Z,42.10
2023-05-24T12:04:37.603Z,42.40
2023-05-24T12:07:05.271Z,40.30
2023-05-24T12:09:32.813Z,39.90
2023-05-24T12:11:59.682Z,39.90
2023-05-24T12:14:32.883Z,42.30
2023-05-24T12:17:03.549Z,40.90
2023-05-24T12:19:36.443Z,40.50
2023-05-24T12:22:06.834Z,40.70
2023-05-24T12:24:34.525Z,41.40
2023-05-24T12:27:07.010Z,40.40
2023-05-24T12:29:40.744Z,40.70
2023-05-24T12:32:13.696Z,40.40
2023-05-24T12:34:42.666Z,40.00
2023-05-24T12:37:11.150Z,40.50
2023-05-24T12:39:39.775Z,39.20
2023-05-24T12:42:07.093Z,40.20
2023-05-24T12:44:38.502Z,40.10
2023-05-24T12:47:08.356Z,40.10
2023-05-24T12:49:36.034Z,40.80
2023-05-24T12:52:03.034Z,41.60
2023-05-24T12:54:30.496Z,40.40
2023-05-24T12:57:00.214Z,39.10
2023-05-24T12:59:28.785Z,38.80
2023-05-24T13:01:56.443Z,38.70
2023-05-24T13:04:24.564Z,38.90
2023-05-24T13:06:51.547Z,38.60
2023-05-24T13:09:21.404Z,38.90
2023-05-24T13:11:48.334Z,39.00
2023-05-24T13:14:16.801Z,39.20
2023-05-24T13:16:44.284Z,41.00
2023-05-24T13:19:11.999Z,41.80
2023-05-24T13:21:39.370Z,40.70
2023-05-24T13:24:07.767Z,39.70
2023-05-24T13:26:38.440Z,40.30
2023-05-24T13:31:41.130Z,38.30
2023-05-24T13:34:10.882Z,39.10
2023-05-24T13:36:38.414Z,37.90
2023-05-24T13:39:15.559Z,39.00
2023-05-24T13:41:44.582Z,38.60
2023-05-24T13:44:15.734Z,37.80
2023-05-24T13:46:43.486Z,38.30
2023-05-24T13:49:11.271Z,39.40
2023-05-24T13:51:38.936Z,38.90
2023-05-24T13:54:07.855Z,38.30
2023-05-24T13:56:35.877Z,38.40
2023-05-24T13:59:03.849Z,38.70
2023-05-24T14:01:32.008Z,40.10
2023-05-24T14:04:01.050Z,39.70
2023-05-24T14:06:27.986Z,38.60
2023-05-24T14:08:54.907Z,38.90
2023-05-24T14:11:22.357Z,39.00
2023-05-24T14:16:19.694Z,39.50
2023-05-24T14:18:49.103Z,40.40
2023-05-24T14:21:18.022Z,40.30
2023-05-24T14:23:44.983Z,40.50
2023-05-24T14:26:11.883Z,40.90
2023-05-24T14:28:38.974Z,40.60
2023-05-24T14:31:05.953Z,40.00
2023-05-24T14:33:32.879Z,39.40
2023-05-24T14:35:59.874Z,40.20
2023-05-24T14:38:26.799Z,39.80
2023-05-24T14:40:53.818Z,40.40
2023-05-24T14:43:21.043Z,40.60
2023-05-24T14:45:48.146Z,39.90
2023-05-24T14:48:16.680Z,39.90
2023-05-24T14:50:43.733Z,40.00
2023-05-24T14:53:13.712Z,40.00
2023-05-24T14:55:42.520Z,40.50
2023-05-24T14:58:11.941Z,41.40
2023-05-24T15:00:39.487Z,40.30
2023-05-24T15:03:08.088Z,40.10
2023-05-24T15:05:36.971Z,40.20
2023-05-24T15:08:05.532Z,41.00
2023-05-24T15:10:33.298Z,40.90
2023-05-24T15:13:01.551Z,40.80
2023-05-24T15:15:29.081Z,41.60
2023-05-24T15:17:57.301Z,40.50
2023-05-24T15:22:52.459Z,39.60
2023-05-24T15:25:19.361Z,39.90
2023-05-24T15:27:46.413Z,40.40
2023-05-24T15:30:13.516Z,40.50
2023-05-24T15:32:41.350Z,41.20
2023-05-24T15:35:08.882Z,41.50
2023-05-24T15:37:35.682Z,40.70
2023-05-24T15:40:02.841Z,40.90
2023-05-24T15:42:31.125Z,40.60
2023-05-24T15:44:58.263Z,41.10
2023-05-24T15:47:29.203Z,41.40
2023-05-24T15:49:57.162Z,41.00
2023-05-24T15:52:24.229Z,40.30
2023-05-24T15:54:51.271Z,39.80
2023-05-24T15:57:18.272Z,40.00
2023-05-24T15:59:45.168Z,40.70
2023-05-24T16:02:12.154Z,40.10
2023-05-24T16:04:39.749Z,41.50
2023-05-24T16:07:06.894Z,40.60
2023-05-24T16:09:34.142Z,40.60
2023-05-24T16:12:01.356Z,40.50
2023-05-24T16:14:29.863Z,41.60
2023-05-24T16:16:59.024Z,41.20
2023-05-24T16:19:26.842Z,41.70
2023-05-24T16:21:53.752Z,40.80
2023-05-24T16:24:20.808Z,40.50
2023-05-24T16:26:47.818Z,41.10
2023-05-24T16:29:16.851Z,40.90
2023-05-24T16:31:43.917Z,41.20
2023-05-24T16:34:10.920Z,41.10
2023-05-24T16:36:38.267Z,41.40
2023-05-24T16:39:05.172Z,41.00
2023-05-24T16:41:37.874Z,40.80
2023-05-24T16:44:04.849Z,40.40
2023-05-24T16:46:32.465Z,40.70
2023-05-24T16:48:59.988Z,40.50
2023-05-24T16:51:27.050Z,41.30
2023-05-24T16:53:54.095Z,41.20
2023-05-24T16:56:21.666Z,41.30
2023-05-24T16:58:48.606Z,41.20
2023-05-24T17:01:15.640Z,41.70
2023-05-24T17:03:42.634Z,42.80
2023-05-24T17:06:09.621Z,42.10
2023-05-24T17:08:37.040Z,41.40
2023-05-24T17:11:04.727Z,41.20
2023-05-24T17:13:32.317Z,41.20
2023-05-24T17:16:00.237Z,41.70
2023-05-24T17:18:30.407Z,40.80
2023-05-24T17:20:59.203Z,40.50
2023-05-24T17:23:27.379Z,40.50
2023-05-24T17:25:55.749Z,40.70
2023-05-24T17:28:27.614Z,39.80
2023-05-24T17:30:59.314Z,40.00
2023-05-24T17:33:28.226Z,40.20
2023-05-24T17:36:01.011Z,40.10
2023-05-24T17:38:28.879Z,40.70
2023-05-24T17:40:59.194Z,40.80
2023-05-24T17:43:32.412Z,41.20
2023-05-24T17:46:06.542Z,41.40
2023-05-24T17:48:39.971Z,41.70
2023-05-24T17:51:09.264Z,41.90
2023-05-24T17:53:38.072Z,43.10
2023-05-24T17:56:06.691Z,43.30
2023-05-24T17:58:36.631Z,43.20
2023-05-24T18:01:08.225Z,43.70
2023-05-24T18:03:39.287Z,43.80
2023-05-24T18:06:07.440Z,44.20
2023-05-24T18:08:37.721Z,45.00
2023-05-24T18:11:08.511Z,45.30
2023-05-24T18:13:37.769Z,45.70
2023-05-24T18:16:05.959Z,46.00
2023-05-24T18:18:33.121Z,45.70
2023-05-24T18:21:00.147Z,45.90
2023-05-24T18:23:27.293Z,45.90
2023-05-24T18:26:00.595Z,46.00
2023-05-24T18:28:29.606Z,45.10
2023-05-24T18:30:56.465Z,45.20
2023-05-24T18:33:23.607Z,45.20
2023-05-24T18:35:50.908Z,46.20
2023-05-24T18:38:17.785Z,46.40
2023-05-24T18:40:44.693Z,45.90
2023-05-24T18:43:11.566Z,46.50
2023-05-24T18:45:38.447Z,46.40
2023-05-24T18:48:06.206Z,46.90
2023-05-24T18:50:33.261Z,46.80
2023-05-24T18:53:00.487Z,46.50
2023-05-24T18:55:28.052Z,46.90
2023-05-24T18:57:55.184Z,45.90
2023-05-24T19:00:24.884Z,46.00
2023-05-24T19:02:52.124Z,46.10
2023-05-24T19:05:20.416Z,45.90
2023-05-24T19:07:47.411Z,46.20
2023-05-24T19:10:14.362Z,46.00
2023-05-24T19:12:41.665Z,46.80
2023-05-24T19:15:09.203Z,46.20
2023-05-24T19:17:36.193Z,46.30
2023-05-24T19:20:04.017Z,46.30
2023-05-24T19:22:30.982Z,46.40
2023-05-24T19:24:57.975Z,46.30
2023-05-24T19:27:25.007Z,46.40
2023-05-24T19:29:52.041Z,46.70
2023-05-24T19:32:20.419Z,46.90
2023-05-24T19:34:47.607Z,47.20
2023-05-24T19:37:15.785Z,47.30
2023-05-24T19:39:42.785Z,47.50
2023-05-24T19:42:10.918Z,47.50
2023-05-24T19:44:37.977Z,47.90
2023-05-24T19:47:05.062Z,48.00
2023-05-24T19:49:32.157Z,48.20
2023-05-24T19:51:59.000Z,48.40
2023-05-24T19:54:26.145Z,48.50
2023-05-24T19:56:55.240Z,48.50
2023-05-24T19:59:22.176Z,49.00
2023-05-24T20:01:49.235Z,49.20
2023-05-24T20:04:16.312Z,49.30
2023-05-24T20:06:43.273Z,50.60
2023-05-24T20:09:10.615Z,49.40
2023-05-24T20:11:37.828Z,49.60
2023-05-24T20:14:04.909Z,49.40
2023-05-24T20:16:31.983Z,49.70
2023-05-24T20:18:59.308Z,50.00
2023-05-24T20:21:26.236Z,50.30
2023-05-24T20:23:58.163Z,50.50
2023-05-24T20:26:26.134Z,51.00
2023-05-24T20:28:53.098Z,50.90
2023-05-24T20:31:20.071Z,51.20
2023-05-24T20:33:47.212Z,51.40
2023-05-24T20:36:15.178Z,51.60
2023-05-24T20:38:42.250Z,51.70
2023-05-24T20:41:09.562Z,51.70
2023-05-24T20:43:36.459Z,51.90
2023-05-24T20:46:03.565Z,51.70
2023-05-24T20:48:30.650Z,52.10
2023-05-24T20:50:57.726Z,52.30
2023-05-24T20:53:24.725Z,52.30
2023-05-24T20:55:51.873Z,52.30
2023-05-24T20:58:18.792Z,52.10
2023-05-24T21:00:46.179Z,52.70
2023-05-24T21:03:13.402Z,52.70
2023-05-24T21:05:40.940Z,53.00
2023-05-24T21:08:07.999Z,53.10
2023-05-24T21:10:35.559Z,53.20
2023-05-24T21:13:02.389Z,53.00
2023-05-24T21:15:29.306Z,53.20
2023-05-24T21:17:56.365Z,53.30
2023-05-24T21:20:23.775Z,53.30
2023-05-24T21:22:50.929Z,53.50
2023-05-24T21:25:17.849Z,53.60
2023-05-24T21:27:44.732Z,53.80
2023-05-24T21:30:12.405Z,53.80
2023-05-24T21:32:39.408Z,53.80
2023-05-24T21:35:07.080Z,54.30
2023-05-24T21:37:34.122Z,54.30
2023-05-24T21:40:01.322Z,54.30
2023-05-24T21:42:28.243Z,54.60
2023-05-24T21:44:55.207Z,54.40
2023-05-24T21:47:22.334Z,54.20
2023-05-24T21:49:50.936Z,54.60
2023-05-24T21:52:18.017Z,54.70
2023-05-24T21:54:44.903Z,54.70
2023-05-24T21:57:12.485Z,54.80
2023-05-24T21:59:39.481Z,54.90
2023-05-24T22:02:06.778Z,55.00
2023-05-24T22:04:33.810Z,55.10
2023-05-24T22:07:00.845Z,55.20
2023-05-24T22:09:27.898Z,55.30
2023-05-24T22:11:54.862Z,55.40
2023-05-24T22:14:21.688Z,55.60
2023-05-24T22:16:49.459Z,55.70
2023-05-24T22:19:18.491Z,55.70
2023-05-24T22:21:52.658Z,55.80
2023-05-24T22:24:19.464Z,56.00
2023-05-24T22:26:47.158Z,56.10
2023-05-24T22:29:14.958Z,56.20
2023-05-24T22:31:41.980Z,56.30
2023-05-24T22:34:11.364Z,56.50
2023-05-24T22:36:39.133Z,56.70
2023-05-24T22:39:06.414Z,56.90
2023-05-24T22:41:33.408Z,56.90
2023-05-24T22:44:00.706Z,57.10
2023-05-24T22:46:27.820Z,56.90
2023-05-24T22:48:57.731Z,57.00
2023-05-24T22:51:25.131Z,57.00
2023-05-24T22:53:52.900Z,57.00
2023-05-24T22:56:20.114Z,57.10
2023-05-24T22:58:47.382Z,57.00
2023-05-24T23:01:16.501Z,57.10
2023-05-24T23:03:43.640Z,57.20
2023-05-24T23:06:12.305Z,57.20
2023-05-24T23:08:39.429Z,57.40
2023-05-24T23:11:13.325Z,57.20
2023-05-24T23:13:42.571Z,57.30
2023-05-24T23:16:09.625Z,57.50
2023-05-24T23:18:37.807Z,57.40
2023-05-24T23:21:04.953Z,57.60
2023-05-24T23:23:31.813Z,57.80
2023-05-24T23:25:58.730Z,57.80
2023-05-24T23:28:25.610Z,58.00
2023-05-24T23:30:53.570Z,58.00
2023-05-24T23:33:20.887Z,58.10
2023-05-24T23:35:48.251Z,58.10
2023-05-24T23:38:15.665Z,58.40
2023-05-24T23:40:42.823Z,58.40
2023-05-24T23:43:10.177Z,58.50
2023-05-24T23:45:37.118Z,58.40
2023-05-24T23:48:04.117Z,58.40
2023-05-24T23:50:37.324Z,58.60
2023-05-24T23:53:10.071Z,58.80
2023-05-24T23:55:37.307Z,58.70
2023-05-24T23:58:04.234Z,58.60
